sensor_id;sensor_type;location;lat;lon;timestamp;P1;durP1;ratioP1;P2;durP2;ratioP2
54384;SDS011;40284;52.878;5.998;2023-08-17T00:00:24;9.18;;;4.32;;
54384;SDS011;40284;52.878;5.998;2023-08-17T00:02:50;9.93;;;4.55;;
54384;SDS011;40284;52.878;5.998;2023-08-17T00:05:16;10.32;;;4.55;;
54384;SDS011;40284;52.878;5.998;2023-08-17T00:07:42;11.88;;;4.72;;
54384;SDS011;40284;52.878;5.998;2023-08-17T00:10:08;7.72;;;4.10;;
54384;SDS011;40284;52.878;5.998;2023-08-17T00:12:34;8.32;;;4.13;;
54384;SDS011;40284;52.878;5.998;2023-08-17T00:15:00;8.15;;;4.47;;
54384;SDS011;40284;52.878;5.998;2023-08-17T00:17:27;7.95;;;4.32;;
54384;SDS011;40284;52.878;5.998;2023-08-17T00:19:53;8.27;;;4.10;;
54384;SDS011;40284;52.878;5.998;2023-08-17T00:22:19;10.48;;;4.40;;
54384;SDS011;40284;52.878;5.998;2023-08-17T00:24:45;6.78;;;4.00;;
54384;SDS011;40284;52.878;5.998;2023-08-17T00:27:11;8.70;;;4.60;;
54384;SDS011;40284;52.878;5.998;2023-08-17T00:29:37;7.72;;;4.05;;
54384;SDS011;40284;52.878;5.998;2023-08-17T00:32:03;4.85;;;4.18;;
54384;SDS011;40284;52.878;5.998;2023-08-17T00:34:29;12.93;;;4.63;;
54384;SDS011;40284;52.878;5.998;2023-08-17T00:36:55;7.28;;;3.85;;
54384;SDS011;40284;52.878;5.998;2023-08-17T00:39:21;5.55;;;3.95;;
54384;SDS011;40284;52.878;5.998;2023-08-17T00:41:47;6.88;;;3.22;;
54384;SDS011;40284;52.878;5.998;2023-08-17T00:44:14;9.80;;;4.22;;
54384;SDS011;40284;52.878;5.998;2023-08-17T00:46:40;7.00;;;3.72;;
54384;SDS011;40284;52.878;5.998;2023-08-17T00:49:06;8.68;;;3.35;;
54384;SDS011;40284;52.878;5.998;2023-08-17T00:51:32;5.72;;;3.72;;
54384;SDS011;40284;52.878;5.998;2023-08-17T00:53:59;10.50;;;4.30;;
54384;SDS011;40284;52.878;5.998;2023-08-17T00:56:27;7.25;;;3.60;;
54384;SDS011;40284;52.878;5.998;2023-08-17T00:58:53;5.55;;;3.00;;
54384;SDS011;40284;52.878;5.998;2023-08-17T01:01:19;6.53;;;3.28;;
54384;SDS011;40284;52.878;5.998;2023-08-17T01:03:46;9.30;;;3.60;;
54384;SDS011;40284;52.878;5.998;2023-08-17T01:06:12;8.85;;;3.30;;
54384;SDS011;40284;52.878;5.998;2023-08-17T01:08:38;8.85;;;3.55;;
54384;SDS011;40284;52.878;5.998;2023-08-17T01:11:07;9.43;;;3.33;;
54384;SDS011;40284;52.878;5.998;2023-08-17T01:13:35;6.25;;;3.67;;
54384;SDS011;40284;52.878;5.998;2023-08-17T01:16:05;7.97;;;3.63;;
54384;SDS011;40284;52.878;5.998;2023-08-17T01:18:33;7.43;;;4.03;;
54384;SDS011;40284;52.878;5.998;2023-08-17T01:21:01;6.70;;;3.50;;
54384;SDS011;40284;52.878;5.998;2023-08-17T01:23:27;6.80;;;3.45;;
54384;SDS011;40284;52.878;5.998;2023-08-17T01:25:54;7.97;;;3.85;;
54384;SDS011;40284;52.878;5.998;2023-08-17T01:28:22;9.57;;;4.50;;
54384;SDS011;40284;52.878;5.998;2023-08-17T01:33:28;7.68;;;4.07;;
54384;SDS011;40284;52.878;5.998;2023-08-17T01:36:01;6.78;;;3.53;;
54384;SDS011;40284;52.878;5.998;2023-08-17T01:38:27;9.10;;;4.15;;
54384;SDS011;40284;52.878;5.998;2023-08-17T01:40:54;10.80;;;3.72;;
54384;SDS011;40284;52.878;5.998;2023-08-17T01:43:21;5.78;;;3.72;;
54384;SDS011;40284;52.878;5.998;2023-08-17T01:45:47;7.82;;;3.90;;
54384;SDS011;40284;52.878;5.998;2023-08-17T01:48:13;11.23;;;4.65;;
54384;SDS011;40284;52.878;5.998;2023-08-17T01:50:39;10.95;;;4.25;;
54384;SDS011;40284;52.878;5.998;2023-08-17T01:53:05;8.52;;;4.18;;
54384;SDS011;40284;52.878;5.998;2023-08-17T01:55:32;10.70;;;4.75;;
54384;SDS011;40284;52.878;5.998;2023-08-17T01:58:00;9.77;;;4.57;;
54384;SDS011;40284;52.878;5.998;2023-08-17T02:00:26;9.82;;;3.58;;
54384;SDS011;40284;52.878;5.998;2023-08-17T02:02:52;6.70;;;3.55;;
54384;SDS011;40284;52.878;5.998;2023-08-17T02:05:18;5.65;;;4.10;;
54384;SDS011;40284;52.878;5.998;2023-08-17T02:07:44;10.43;;;4.20;;
54384;SDS011;40284;52.878;5.998;2023-08-17T02:10:10;9.88;;;4.28;;
54384;SDS011;40284;52.878;5.998;2023-08-17T02:12:36;9.00;;;4.40;;
54384;SDS011;40284;52.878;5.998;2023-08-17T02:15:02;10.43;;;4.22;;
54384;SDS011;40284;52.878;5.998;2023-08-17T02:17:28;8.98;;;4.25;;
54384;SDS011;40284;52.878;5.998;2023-08-17T02:19:55;8.35;;;4.00;;
54384;SDS011;40284;52.878;5.998;2023-08-17T02:22:21;11.65;;;3.83;;
54384;SDS011;40284;52.878;5.998;2023-08-17T02:24:47;8.57;;;3.88;;
54384;SDS011;40284;52.878;5.998;2023-08-17T02:27:13;8.70;;;4.10;;
54384;SDS011;40284;52.878;5.998;2023-08-17T02:29:39;8.27;;;4.30;;
54384;SDS011;40284;52.878;5.998;2023-08-17T02:32:05;10.70;;;4.57;;
54384;SDS011;40284;52.878;5.998;2023-08-17T02:34:31;8.05;;;4.20;;
54384;SDS011;40284;52.878;5.998;2023-08-17T02:36:57;10.45;;;4.28;;
54384;SDS011;40284;52.878;5.998;2023-08-17T02:39:23;8.65;;;3.80;;
54384;SDS011;40284;52.878;5.998;2023-08-17T02:41:49;9.80;;;4.57;;
54384;SDS011;40284;52.878;5.998;2023-08-17T02:44:15;5.88;;;3.63;;
54384;SDS011;40284;52.878;5.998;2023-08-17T02:46:41;10.05;;;4.40;;
54384;SDS011;40284;52.878;5.998;2023-08-17T02:49:08;8.68;;;4.47;;
54384;SDS011;40284;52.878;5.998;2023-08-17T02:51:34;6.88;;;4.25;;
54384;SDS011;40284;52.878;5.998;2023-08-17T02:54:00;14.80;;;5.55;;
54384;SDS011;40284;52.878;5.998;2023-08-17T02:56:26;12.27;;;4.30;;
54384;SDS011;40284;52.878;5.998;2023-08-17T02:58:52;9.43;;;4.20;;
54384;SDS011;40284;52.878;5.998;2023-08-17T03:01:18;10.27;;;4.68;;
54384;SDS011;40284;52.878;5.998;2023-08-17T03:03:44;13.05;;;5.38;;
54384;SDS011;40284;52.878;5.998;2023-08-17T03:06:10;9.55;;;4.40;;
54384;SDS011;40284;52.878;5.998;2023-08-17T03:08:36;6.28;;;4.28;;
54384;SDS011;40284;52.878;5.998;2023-08-17T03:11:02;9.45;;;4.35;;
54384;SDS011;40284;52.878;5.998;2023-08-17T03:13:28;8.43;;;4.57;;
54384;SDS011;40284;52.878;5.998;2023-08-17T03:15:54;7.28;;;4.50;;
54384;SDS011;40284;52.878;5.998;2023-08-17T03:18:20;8.32;;;4.70;;
54384;SDS011;40284;52.878;5.998;2023-08-17T03:20:47;7.55;;;4.05;;
54384;SDS011;40284;52.878;5.998;2023-08-17T03:23:13;7.53;;;4.53;;
54384;SDS011;40284;52.878;5.998;2023-08-17T03:25:39;8.90;;;4.30;;
54384;SDS011;40284;52.878;5.998;2023-08-17T03:28:05;9.20;;;4.97;;
54384;SDS011;40284;52.878;5.998;2023-08-17T03:30:31;8.98;;;4.65;;
54384;SDS011;40284;52.878;5.998;2023-08-17T03:32:57;10.55;;;5.38;;
54384;SDS011;40284;52.878;5.998;2023-08-17T03:35:23;6.18;;;4.18;;
54384;SDS011;40284;52.878;5.998;2023-08-17T03:37:50;7.22;;;4.72;;
54384;SDS011;40284;52.878;5.998;2023-08-17T03:40:16;7.65;;;4.45;;
54384;SDS011;40284;52.878;5.998;2023-08-17T03:42:42;7.65;;;4.70;;
54384;SDS011;40284;52.878;5.998;2023-08-17T03:45:08;10.70;;;4.60;;
54384;SDS011;40284;52.878;5.998;2023-08-17T03:47:34;7.68;;;3.88;;
54384;SDS011;40284;52.878;5.998;2023-08-17T03:50:00;6.85;;;4.28;;
54384;SDS011;40284;52.878;5.998;2023-08-17T03:52:26;11.55;;;4.70;;
54384;SDS011;40284;52.878;5.998;2023-08-17T03:54:52;9.85;;;4.40;;
54384;SDS011;40284;52.878;5.998;2023-08-17T03:57:19;11.70;;;4.28;;
54384;SDS011;40284;52.878;5.998;2023-08-17T03:59:45;7.45;;;4.72;;
54384;SDS011;40284;52.878;5.998;2023-08-17T04:02:11;9.98;;;4.40;;
54384;SDS011;40284;52.878;5.998;2023-08-17T04:04:37;11.40;;;4.20;;
54384;SDS011;40284;52.878;5.998;2023-08-17T04:07:03;14.13;;;5.05;;
54384;SDS011;40284;52.878;5.998;2023-08-17T04:09:29;8.18;;;4.70;;
54384;SDS011;40284;52.878;5.998;2023-08-17T04:11:55;7.53;;;4.57;;
54384;SDS011;40284;52.878;5.998;2023-08-17T04:14:22;10.65;;;4.68;;
54384;SDS011;40284;52.878;5.998;2023-08-17T04:16:48;10.30;;;4.95;;
54384;SDS011;40284;52.878;5.998;2023-08-17T04:19:14;8.27;;;4.65;;
54384;SDS011;40284;52.878;5.998;2023-08-17T04:21:40;9.40;;;4.55;;
54384;SDS011;40284;52.878;5.998;2023-08-17T04:24:06;8.27;;;4.68;;
54384;SDS011;40284;52.878;5.998;2023-08-17T04:26:32;7.72;;;4.82;;
54384;SDS011;40284;52.878;5.998;2023-08-17T04:28:59;8.57;;;5.18;;
54384;SDS011;40284;52.878;5.998;2023-08-17T04:31:25;10.40;;;4.90;;
54384;SDS011;40284;52.878;5.998;2023-08-17T04:33:51;8.82;;;4.95;;
54384;SDS011;40284;52.878;5.998;2023-08-17T04:36:18;12.27;;;4.35;;
54384;SDS011;40284;52.878;5.998;2023-08-17T04:38:44;8.85;;;4.30;;
54384;SDS011;40284;52.878;5.998;2023-08-17T04:41:10;10.40;;;4.47;;
54384;SDS011;40284;52.878;5.998;2023-08-17T04:43:36;7.63;;;4.22;;
54384;SDS011;40284;52.878;5.998;2023-08-17T04:46:02;10.60;;;4.38;;
54384;SDS011;40284;52.878;5.998;2023-08-17T04:48:28;6.47;;;3.67;;
54384;SDS011;40284;52.878;5.998;2023-08-17T04:50:54;10.60;;;3.83;;
54384;SDS011;40284;52.878;5.998;2023-08-17T04:53:20;13.40;;;4.70;;
54384;SDS011;40284;52.878;5.998;2023-08-17T04:55:46;6.38;;;3.85;;
54384;SDS011;40284;52.878;5.998;2023-08-17T04:58:12;9.43;;;4.80;;
54384;SDS011;40284;52.878;5.998;2023-08-17T05:00:38;7.07;;;3.60;;
54384;SDS011;40284;52.878;5.998;2023-08-17T05:03:04;7.50;;;4.40;;
54384;SDS011;40284;52.878;5.998;2023-08-17T05:05:31;7.65;;;3.85;;
54384;SDS011;40284;52.878;5.998;2023-08-17T05:07:57;8.05;;;4.07;;
54384;SDS011;40284;52.878;5.998;2023-08-17T05:10:23;5.40;;;4.47;;
54384;SDS011;40284;52.878;5.998;2023-08-17T05:12:49;8.63;;;4.20;;
54384;SDS011;40284;52.878;5.998;2023-08-17T05:15:15;5.72;;;3.40;;
54384;SDS011;40284;52.878;5.998;2023-08-17T05:17:41;7.20;;;4.25;;
54384;SDS011;40284;52.878;5.998;2023-08-17T05:20:07;8.43;;;3.97;;
54384;SDS011;40284;52.878;5.998;2023-08-17T05:22:33;7.28;;;3.78;;
54384;SDS011;40284;52.878;5.998;2023-08-17T05:24:59;12.20;;;3.65;;
54384;SDS011;40284;52.878;5.998;2023-08-17T05:27:25;7.65;;;3.55;;
54384;SDS011;40284;52.878;5.998;2023-08-17T05:29:51;6.50;;;3.60;;
54384;SDS011;40284;52.878;5.998;2023-08-17T05:32:18;7.13;;;4.35;;
54384;SDS011;40284;52.878;5.998;2023-08-17T05:34:44;8.15;;;3.78;;
54384;SDS011;40284;52.878;5.998;2023-08-17T05:37:10;8.77;;;3.70;;
54384;SDS011;40284;52.878;5.998;2023-08-17T05:39:36;10.10;;;4.07;;
54384;SDS011;40284;52.878;5.998;2023-08-17T05:42:02;7.65;;;3.35;;
54384;SDS011;40284;52.878;5.998;2023-08-17T05:44:28;7.88;;;3.65;;
54384;SDS011;40284;52.878;5.998;2023-08-17T05:46:54;8.00;;;3.60;;
54384;SDS011;40284;52.878;5.998;2023-08-17T05:49:20;5.68;;;3.35;;
54384;SDS011;40284;52.878;5.998;2023-08-17T05:51:46;10.10;;;3.42;;
54384;SDS011;40284;52.878;5.998;2023-08-17T05:54:12;6.28;;;3.28;;
54384;SDS011;40284;52.878;5.998;2023-08-17T05:56:38;8.80;;;3.70;;
54384;SDS011;40284;52.878;5.998;2023-08-17T05:59:10;5.70;;;2.97;;
54384;SDS011;40284;52.878;5.998;2023-08-17T06:01:36;7.28;;;3.58;;
54384;SDS011;40284;52.878;5.998;2023-08-17T06:04:03;9.10;;;3.90;;
54384;SDS011;40284;52.878;5.998;2023-08-17T06:06:29;5.55;;;3.15;;
54384;SDS011;40284;52.878;5.998;2023-08-17T06:08:55;6.50;;;3.42;;
54384;SDS011;40284;52.878;5.998;2023-08-17T06:11:21;6.97;;;3.03;;
54384;SDS011;40284;52.878;5.998;2023-08-17T06:13:48;7.47;;;3.17;;
54384;SDS011;40284;52.878;5.998;2023-08-17T06:16:14;5.47;;;2.75;;
54384;SDS011;40284;52.878;5.998;2023-08-17T06:18:40;7.63;;;3.00;;
54384;SDS011;40284;52.878;5.998;2023-08-17T06:21:07;3.80;;;2.78;;
54384;SDS011;40284;52.878;5.998;2023-08-17T06:23:33;4.40;;;2.92;;
54384;SDS011;40284;52.878;5.998;2023-08-17T06:25:59;6.20;;;2.80;;
54384;SDS011;40284;52.878;5.998;2023-08-17T06:28:25;11.18;;;3.10;;
54384;SDS011;40284;52.878;5.998;2023-08-17T06:30:52;7.22;;;3.25;;
54384;SDS011;40284;52.878;5.998;2023-08-17T06:33:21;7.93;;;3.00;;
54384;SDS011;40284;52.878;5.998;2023-08-17T06:35:48;5.75;;;2.47;;
54384;SDS011;40284;52.878;5.998;2023-08-17T06:38:14;6.50;;;2.75;;
54384;SDS011;40284;52.878;5.998;2023-08-17T06:40:41;6.38;;;2.22;;
54384;SDS011;40284;52.878;5.998;2023-08-17T06:43:07;7.30;;;2.75;;
54384;SDS011;40284;52.878;5.998;2023-08-17T06:45:34;5.07;;;2.25;;
54384;SDS011;40284;52.878;5.998;2023-08-17T06:48:00;8.10;;;2.95;;
54384;SDS011;40284;52.878;5.998;2023-08-17T06:50:27;6.22;;;2.42;;
54384;SDS011;40284;52.878;5.998;2023-08-17T06:52:53;7.25;;;2.50;;
54384;SDS011;40284;52.878;5.998;2023-08-17T06:55:19;10.63;;;2.70;;
54384;SDS011;40284;52.878;5.998;2023-08-17T06:57:46;8.50;;;2.40;;
54384;SDS011;40284;52.878;5.998;2023-08-17T07:00:14;6.13;;;2.63;;
54384;SDS011;40284;52.878;5.998;2023-08-17T07:02:41;9.57;;;2.88;;
54384;SDS011;40284;52.878;5.998;2023-08-17T07:05:07;6.97;;;3.03;;
54384;SDS011;40284;52.878;5.998;2023-08-17T07:07:33;6.28;;;2.72;;
54384;SDS011;40284;52.878;5.998;2023-08-17T07:09:59;7.70;;;2.33;;
54384;SDS011;40284;52.878;5.998;2023-08-17T07:12:26;5.80;;;2.40;;
54384;SDS011;40284;52.878;5.998;2023-08-17T07:14:53;6.68;;;2.67;;
54384;SDS011;40284;52.878;5.998;2023-08-17T07:17:19;5.78;;;2.17;;
54384;SDS011;40284;52.878;5.998;2023-08-17T07:19:45;8.10;;;2.35;;
54384;SDS011;40284;52.878;5.998;2023-08-17T07:22:11;7.90;;;2.15;;
54384;SDS011;40284;52.878;5.998;2023-08-17T07:24:37;5.60;;;2.40;;
54384;SDS011;40284;52.878;5.998;2023-08-17T07:27:03;6.95;;;2.05;;
54384;SDS011;40284;52.878;5.998;2023-08-17T07:29:30;5.97;;;2.53;;
54384;SDS011;40284;52.878;5.998;2023-08-17T07:31:56;10.32;;;2.10;;
54384;SDS011;40284;52.878;5.998;2023-08-17T07:34:26;12.40;;;3.60;;
54384;SDS011;40284;52.878;5.998;2023-08-17T07:36:52;5.53;;;2.05;;
54384;SDS011;40284;52.878;5.998;2023-08-17T07:39:18;5.75;;;2.28;;
54384;SDS011;40284;52.878;5.998;2023-08-17T07:41:44;6.65;;;2.80;;
54384;SDS011;40284;52.878;5.998;2023-08-17T07:44:10;6.53;;;2.58;;
54384;SDS011;40284;52.878;5.998;2023-08-17T07:46:36;6.20;;;1.98;;
54384;SDS011;40284;52.878;5.998;2023-08-17T07:49:03;6.53;;;1.95;;
54384;SDS011;40284;52.878;5.998;2023-08-17T07:51:29;4.47;;;1.98;;
54384;SDS011;40284;52.878;5.998;2023-08-17T07:53:57;7.30;;;2.10;;
54384;SDS011;40284;52.878;5.998;2023-08-17T07:56:23;10.68;;;2.67;;
54384;SDS011;40284;52.878;5.998;2023-08-17T07:58:49;7.93;;;2.63;;
54384;SDS011;40284;52.878;5.998;2023-08-17T08:01:15;10.43;;;2.40;;
54384;SDS011;40284;52.878;5.998;2023-08-17T08:03:41;6.03;;;2.70;;
54384;SDS011;40284;52.878;5.998;2023-08-17T08:06:07;7.80;;;2.13;;
54384;SDS011;40284;52.878;5.998;2023-08-17T08:08:33;8.48;;;2.45;;
54384;SDS011;40284;52.878;5.998;2023-08-17T08:11:00;4.97;;;1.95;;
54384;SDS011;40284;52.878;5.998;2023-08-17T08:13:26;4.10;;;1.85;;
54384;SDS011;40284;52.878;5.998;2023-08-17T08:15:52;5.50;;;1.95;;
54384;SDS011;40284;52.878;5.998;2023-08-17T08:18:18;6.55;;;2.15;;
54384;SDS011;40284;52.878;5.998;2023-08-17T08:20:44;6.00;;;1.85;;
54384;SDS011;40284;52.878;5.998;2023-08-17T08:23:10;8.45;;;2.53;;
54384;SDS011;40284;52.878;5.998;2023-08-17T08:25:36;5.28;;;1.90;;
54384;SDS011;40284;52.878;5.998;2023-08-17T08:28:02;4.72;;;2.20;;
54384;SDS011;40284;52.878;5.998;2023-08-17T08:30:28;4.97;;;1.77;;
54384;SDS011;40284;52.878;5.998;2023-08-17T08:32:55;8.65;;;2.03;;
54384;SDS011;40284;52.878;5.998;2023-08-17T08:35:23;5.90;;;2.17;;
54384;SDS011;40284;52.878;5.998;2023-08-17T08:37:49;5.18;;;1.85;;
54384;SDS011;40284;52.878;5.998;2023-08-17T08:40:15;5.60;;;1.90;;
54384;SDS011;40284;52.878;5.998;2023-08-17T08:42:42;4.10;;;1.58;;
54384;SDS011;40284;52.878;5.998;2023-08-17T08:45:08;6.75;;;1.67;;
54384;SDS011;40284;52.878;5.998;2023-08-17T08:47:35;3.50;;;1.45;;
54384;SDS011;40284;52.878;5.998;2023-08-17T08:50:03;6.45;;;1.85;;
54384;SDS011;40284;52.878;5.998;2023-08-17T08:52:33;4.50;;;1.65;;
54384;SDS011;40284;52.878;5.998;2023-08-17T08:55:02;7.15;;;1.80;;
54384;SDS011;40284;52.878;5.998;2023-08-17T08:57:29;5.25;;;1.38;;
54384;SDS011;40284;52.878;5.998;2023-08-17T08:59:55;4.28;;;1.98;;
54384;SDS011;40284;52.878;5.998;2023-08-17T09:02:21;8.65;;;1.73;;
54384;SDS011;40284;52.878;5.998;2023-08-17T09:04:47;5.85;;;1.70;;
54384;SDS011;40284;52.878;5.998;2023-08-17T09:07:14;5.65;;;1.33;;
54384;SDS011;40284;52.878;5.998;2023-08-17T09:09:42;7.07;;;1.73;;
54384;SDS011;40284;52.878;5.998;2023-08-17T09:12:10;4.70;;;1.58;;
54384;SDS011;40284;52.878;5.998;2023-08-17T09:14:36;5.00;;;1.35;;
54384;SDS011;40284;52.878;5.998;2023-08-17T09:17:03;4.68;;;1.52;;
54384;SDS011;40284;52.878;5.998;2023-08-17T09:19:31;3.83;;;1.08;;
54384;SDS011;40284;52.878;5.998;2023-08-17T09:21:57;5.30;;;1.27;;
54384;SDS011;40284;52.878;5.998;2023-08-17T09:24:23;5.15;;;1.60;;
54384;SDS011;40284;52.878;5.998;2023-08-17T09:26:49;4.35;;;1.33;;
54384;SDS011;40284;52.878;5.998;2023-08-17T09:29:16;5.32;;;1.60;;
54384;SDS011;40284;52.878;5.998;2023-08-17T09:31:42;4.65;;;1.27;;
54384;SDS011;40284;52.878;5.998;2023-08-17T09:34:14;10.68;;;2.55;;
54384;SDS011;40284;52.878;5.998;2023-08-17T09:36:41;3.67;;;1.63;;
54384;SDS011;40284;52.878;5.998;2023-08-17T09:39:07;3.92;;;1.40;;
54384;SDS011;40284;52.878;5.998;2023-08-17T09:41:40;6.15;;;1.40;;
54384;SDS011;40284;52.878;5.998;2023-08-17T09:44:07;3.55;;;1.52;;
54384;SDS011;40284;52.878;5.998;2023-08-17T09:46:33;6.25;;;1.20;;
54384;SDS011;40284;52.878;5.998;2023-08-17T09:49:01;4.93;;;1.40;;
54384;SDS011;40284;52.878;5.998;2023-08-17T09:51:29;6.75;;;1.52;;
54384;SDS011;40284;52.878;5.998;2023-08-17T09:53:56;5.90;;;1.52;;
54384;SDS011;40284;52.878;5.998;2023-08-17T09:56:23;4.45;;;1.30;;
54384;SDS011;40284;52.878;5.998;2023-08-17T09:58:50;4.55;;;1.98;;
54384;SDS011;40284;52.878;5.998;2023-08-17T10:01:18;5.07;;;1.38;;
54384;SDS011;40284;52.878;5.998;2023-08-17T10:03:44;3.63;;;1.58;;
54384;SDS011;40284;52.878;5.998;2023-08-17T10:06:12;4.30;;;1.20;;
54384;SDS011;40284;52.878;5.998;2023-08-17T10:08:40;4.78;;;1.48;;
54384;SDS011;40284;52.878;5.998;2023-08-17T10:11:08;4.47;;;1.33;;
54384;SDS011;40284;52.878;5.998;2023-08-17T10:16:02;3.22;;;1.58;;
54384;SDS011;40284;52.878;5.998;2023-08-17T10:18:35;5.00;;;1.40;;
54384;SDS011;40284;52.878;5.998;2023-08-17T10:21:07;2.75;;;1.40;;
54384;SDS011;40284;52.878;5.998;2023-08-17T10:23:35;3.58;;;1.45;;
54384;SDS011;40284;52.878;5.998;2023-08-17T10:26:02;3.78;;;1.75;;
54384;SDS011;40284;52.878;5.998;2023-08-17T10:28:30;5.90;;;1.77;;
54384;SDS011;40284;52.878;5.998;2023-08-17T10:30:57;4.65;;;1.48;;
54384;SDS011;40284;52.878;5.998;2023-08-17T10:33:23;4.53;;;1.58;;
54384;SDS011;40284;52.878;5.998;2023-08-17T10:35:50;3.42;;;1.83;;
54384;SDS011;40284;52.878;5.998;2023-08-17T10:38:16;4.43;;;1.55;;
54384;SDS011;40284;52.878;5.998;2023-08-17T10:40:43;6.72;;;1.60;;
54384;SDS011;40284;52.878;5.998;2023-08-17T10:43:09;7.43;;;3.45;;
54384;SDS011;40284;52.878;5.998;2023-08-17T10:45:36;6.63;;;1.95;;
54384;SDS011;40284;52.878;5.998;2023-08-17T10:50:35;3.20;;;1.42;;
54384;SDS011;40284;52.878;5.998;2023-08-17T10:53:19;5.00;;;1.58;;
54384;SDS011;40284;52.878;5.998;2023-08-17T10:55:46;6.10;;;1.80;;
54384;SDS011;40284;52.878;5.998;2023-08-17T10:58:17;4.15;;;1.70;;
54384;SDS011;40284;52.878;5.998;2023-08-17T11:00:43;5.10;;;2.15;;
54384;SDS011;40284;52.878;5.998;2023-08-17T11:03:10;10.02;;;1.70;;
54384;SDS011;40284;52.878;5.998;2023-08-17T11:05:46;5.32;;;1.85;;
54384;SDS011;40284;52.878;5.998;2023-08-17T11:13:33;4.75;;;1.48;;
54384;SDS011;40284;52.878;5.998;2023-08-17T11:16:00;11.90;;;5.22;;
54384;SDS011;40284;52.878;5.998;2023-08-17T11:18:26;10.48;;;3.40;;
54384;SDS011;40284;52.878;5.998;2023-08-17T11:20:52;5.00;;;1.58;;
54384;SDS011;40284;52.878;5.998;2023-08-17T11:23:19;5.65;;;2.40;;
54384;SDS011;40284;52.878;5.998;2023-08-17T11:25:45;4.32;;;1.70;;
54384;SDS011;40284;52.878;5.998;2023-08-17T11:28:12;7.32;;;2.03;;
54384;SDS011;40284;52.878;5.998;2023-08-17T11:30:39;7.85;;;2.10;;
54384;SDS011;40284;52.878;5.998;2023-08-17T11:33:06;4.38;;;1.63;;
54384;SDS011;40284;52.878;5.998;2023-08-17T11:35:33;4.55;;;1.63;;
54384;SDS011;40284;52.878;5.998;2023-08-17T11:37:59;4.45;;;1.70;;
54384;SDS011;40284;52.878;5.998;2023-08-17T11:40:26;7.35;;;2.00;;
54384;SDS011;40284;52.878;5.998;2023-08-17T11:42:52;5.45;;;2.30;;
54384;SDS011;40284;52.878;5.998;2023-08-17T11:45:18;5.05;;;1.70;;
54384;SDS011;40284;52.878;5.998;2023-08-17T11:47:46;5.65;;;1.88;;
54384;SDS011;40284;52.878;5.998;2023-08-17T11:50:12;8.10;;;2.17;;
54384;SDS011;40284;52.878;5.998;2023-08-17T11:52:39;6.65;;;1.60;;
54384;SDS011;40284;52.878;5.998;2023-08-17T11:55:06;4.20;;;1.50;;
54384;SDS011;40284;52.878;5.998;2023-08-17T11:57:32;5.13;;;1.77;;
54384;SDS011;40284;52.878;5.998;2023-08-17T11:59:59;4.70;;;2.08;;
54384;SDS011;40284;52.878;5.998;2023-08-17T12:02:29;5.70;;;1.60;;
54384;SDS011;40284;52.878;5.998;2023-08-17T12:04:56;6.82;;;1.65;;
54384;SDS011;40284;52.878;5.998;2023-08-17T12:07:24;7.10;;;1.75;;
54384;SDS011;40284;52.878;5.998;2023-08-17T12:09:51;6.70;;;1.70;;
54384;SDS011;40284;52.878;5.998;2023-08-17T12:12:23;10.05;;;2.10;;
54384;SDS011;40284;52.878;5.998;2023-08-17T12:14:50;5.18;;;1.83;;
54384;SDS011;40284;52.878;5.998;2023-08-17T12:17:19;4.38;;;1.60;;
54384;SDS011;40284;52.878;5.998;2023-08-17T12:19:49;3.17;;;1.38;;
54384;SDS011;40284;52.878;5.998;2023-08-17T12:22:16;5.68;;;2.00;;
54384;SDS011;40284;52.878;5.998;2023-08-17T12:24:42;4.35;;;1.48;;
54384;SDS011;40284;52.878;5.998;2023-08-17T12:27:09;6.03;;;1.58;;
54384;SDS011;40284;52.878;5.998;2023-08-17T12:29:51;4.20;;;1.80;;
54384;SDS011;40284;52.878;5.998;2023-08-17T12:32:18;5.93;;;1.60;;
54384;SDS011;40284;52.878;5.998;2023-08-17T12:34:45;5.00;;;1.70;;
54384;SDS011;40284;52.878;5.998;2023-08-17T12:37:11;4.38;;;1.85;;
54384;SDS011;40284;52.878;5.998;2023-08-17T12:39:38;3.55;;;1.50;;
54384;SDS011;40284;52.878;5.998;2023-08-17T12:42:04;3.80;;;1.75;;
54384;SDS011;40284;52.878;5.998;2023-08-17T12:44:30;2.92;;;1.58;;
54384;SDS011;40284;52.878;5.998;2023-08-17T12:46:56;5.50;;;1.60;;
54384;SDS011;40284;52.878;5.998;2023-08-17T12:49:23;7.70;;;2.33;;
54384;SDS011;40284;52.878;5.998;2023-08-17T12:51:49;3.67;;;1.80;;
54384;SDS011;40284;52.878;5.998;2023-08-17T12:54:15;4.35;;;1.85;;
54384;SDS011;40284;52.878;5.998;2023-08-17T12:56:41;6.25;;;2.08;;
54384;SDS011;40284;52.878;5.998;2023-08-17T12:59:07;6.78;;;2.20;;
54384;SDS011;40284;52.878;5.998;2023-08-17T13:01:33;4.53;;;2.20;;
54384;SDS011;40284;52.878;5.998;2023-08-17T13:03:59;6.15;;;2.15;;
54384;SDS011;40284;52.878;5.998;2023-08-17T13:06:25;3.63;;;1.85;;
54384;SDS011;40284;52.878;5.998;2023-08-17T13:08:51;5.95;;;2.15;;
54384;SDS011;40284;52.878;5.998;2023-08-17T13:11:17;5.32;;;2.28;;
54384;SDS011;40284;52.878;5.998;2023-08-17T13:13:44;4.55;;;2.03;;
54384;SDS011;40284;52.878;5.998;2023-08-17T13:16:10;4.75;;;1.98;;
54384;SDS011;40284;52.878;5.998;2023-08-17T13:18:37;6.68;;;2.58;;
54384;SDS011;40284;52.878;5.998;2023-08-17T13:21:03;3.97;;;2.40;;
54384;SDS011;40284;52.878;5.998;2023-08-17T13:23:29;4.55;;;2.20;;
54384;SDS011;40284;52.878;5.998;2023-08-17T13:25:55;7.82;;;2.47;;
54384;SDS011;40284;52.878;5.998;2023-08-17T13:28:21;6.68;;;2.42;;
54384;SDS011;40284;52.878;5.998;2023-08-17T13:30:47;8.70;;;2.25;;
54384;SDS011;40284;52.878;5.998;2023-08-17T13:33:13;6.88;;;2.03;;
54384;SDS011;40284;52.878;5.998;2023-08-17T13:35:41;6.18;;;3.25;;
54384;SDS011;40284;52.878;5.998;2023-08-17T13:38:07;6.93;;;2.47;;
54384;SDS011;40284;52.878;5.998;2023-08-17T13:40:34;4.97;;;2.30;;
54384;SDS011;40284;52.878;5.998;2023-08-17T13:43:01;4.15;;;2.30;;
54384;SDS011;40284;52.878;5.998;2023-08-17T13:45:28;7.80;;;2.13;;
54384;SDS011;40284;52.878;5.998;2023-08-17T13:47:54;6.40;;;2.45;;
54384;SDS011;40284;52.878;5.998;2023-08-17T13:50:20;4.20;;;2.83;;
54384;SDS011;40284;52.878;5.998;2023-08-17T13:52:46;6.35;;;2.00;;
54384;SDS011;40284;52.878;5.998;2023-08-17T13:55:13;5.57;;;2.45;;
54384;SDS011;40284;52.878;5.998;2023-08-17T13:57:39;6.47;;;2.70;;
54384;SDS011;40284;52.878;5.998;2023-08-17T14:00:05;3.50;;;2.15;;
54384;SDS011;40284;52.878;5.998;2023-08-17T14:02:31;11.27;;;3.55;;
54384;SDS011;40284;52.878;5.998;2023-08-17T14:04:57;5.30;;;2.35;;
54384;SDS011;40284;52.878;5.998;2023-08-17T14:07:23;6.20;;;2.40;;
54384;SDS011;40284;52.878;5.998;2023-08-17T14:09:49;4.95;;;2.38;;
54384;SDS011;40284;52.878;5.998;2023-08-17T14:12:15;6.97;;;2.40;;
54384;SDS011;40284;52.878;5.998;2023-08-17T14:14:41;6.20;;;2.35;;
54384;SDS011;40284;52.878;5.998;2023-08-17T14:17:07;3.92;;;1.95;;
54384;SDS011;40284;52.878;5.998;2023-08-17T14:19:33;3.78;;;1.70;;
54384;SDS011;40284;52.878;5.998;2023-08-17T14:22:00;6.72;;;2.33;;
54384;SDS011;40284;52.878;5.998;2023-08-17T14:24:26;9.18;;;2.20;;
54384;SDS011;40284;52.878;5.998;2023-08-17T14:26:52;6.43;;;2.38;;
54384;SDS011;40284;52.878;5.998;2023-08-17T14:29:18;6.28;;;2.33;;
54384;SDS011;40284;52.878;5.998;2023-08-17T14:31:45;9.07;;;2.88;;
54384;SDS011;40284;52.878;5.998;2023-08-17T14:34:11;6.65;;;3.13;;
54384;SDS011;40284;52.878;5.998;2023-08-17T14:36:38;6.07;;;2.33;;
54384;SDS011;40284;52.878;5.998;2023-08-17T14:39:04;6.57;;;2.40;;
54384;SDS011;40284;52.878;5.998;2023-08-17T14:41:31;4.25;;;2.17;;
54384;SDS011;40284;52.878;5.998;2023-08-17T14:43:58;5.45;;;2.58;;
54384;SDS011;40284;52.878;5.998;2023-08-17T14:46:24;8.13;;;2.47;;
54384;SDS011;40284;52.878;5.998;2023-08-17T14:48:51;5.50;;;2.40;;
54384;SDS011;40284;52.878;5.998;2023-08-17T14:51:17;8.07;;;2.60;;
54384;SDS011;40284;52.878;5.998;2023-08-17T14:53:43;6.65;;;3.00;;